Time;durP1;ratioP1;P1;durP2;ratioP2;P2;SDS_P1;SDS_P2;PMS_P1;PMS_P2;Temp;Humidity;BMP_temperature;BMP_pressure;BME280_temperature;BME280_humidity;BME280_pressure;Samples;Min_cycle;Max_cycle;Signal;HPM_P1;HPM_P2
2023/11/02 00:00:36;;;;;;;6.60;4.50;;;;;;;;;;12697482;22;20048;-69
2023/11/02 00:05:52;;;;;;;7.78;4.50;;;;;;;;;;12696247;23;20042;-70
2023/11/02 00:10:49;;;;;;;9.48;4.82;;;;;;;;;;12697930;22;20054;-69
2023/11/02 00:15:46;;;;;;;7.63;5.30;;;;;;;;;;12697602;23;20024;-69
2023/11/02 00:20:42;;;;;;;6.32;4.53;;;;;;;;;;12697922;22;20359;-70
2023/11/02 00:25:53;;;;;;;7.40;4.93;;;;;;;;;;12697531;23;20086;-69
2023/11/02 00:30:50;;;;;;;8.15;4.40;;;;;;;;;;12696534;22;20110;-69
2023/11/02 00:35:51;;;;;;;7.63;4.78;;;;;;;;;;12697105;23;20615;-69
2023/11/02 00:40:48;;;;;;;5.63;4.97;;;;;;;;;;12696346;22;20024;-70
2023/11/02 00:45:44;;;;;;;6.15;4.43;;;;;;;;;;12696198;23;20028;-69
2023/11/02 00:50:56;;;;;;;5.35;4.90;;;;;;;;;;12695332;22;20016;-69
2023/11/02 00:55:52;;;;;;;5.10;4.65;;;;;;;;;;12696778;23;20099;-68
2023/11/02 01:00:57;;;;;;;5.90;5.30;;;;;;;;;;12697123;22;20089;-70
2023/11/02 01:05:53;;;;;;;6.20;5.15;;;;;;;;;;12690663;23;20024;-70
2023/11/02 01:10:49;;;;;;;8.32;5.07;;;;;;;;;;12696331;22;20028;-70
2023/11/02 01:15:48;;;;;;;7.32;5.50;;;;;;;;;;12689450;22;20102;-67
2023/11/02 01:20:50;;;;;;;7.03;5.22;;;;;;;;;;12695386;22;20078;-68
2023/11/02 01:25:49;;;;;;;6.40;5.05;;;;;;;;;;12696250;23;20078;-69
2023/11/02 01:30:54;;;;;;;9.30;5.00;;;;;;;;;;12696111;22;20409;-68
2023/11/02 01:35:50;;;;;;;8.18;5.47;;;;;;;;;;12700600;23;20050;-67
2023/11/02 01:41:05;;;;;;;8.70;5.22;;;;;;;;;;12699708;22;20023;-68
2023/11/02 01:46:04;;;;;;;7.55;5.18;;;;;;;;;;12699731;23;20016;-69
2023/11/02 01:51:08;;;;;;;5.55;5.03;;;;;;;;;;12699641;22;20051;-69
2023/11/02 01:56:23;;;;;;;7.90;5.15;;;;;;;;;;12700334;23;20575;-68
2023/11/02 02:01:31;;;;;;;7.53;5.05;;;;;;;;;;12699169;22;20082;-70
2023/11/02 02:06:38;;;;;;;6.57;4.85;;;;;;;;;;12696716;23;20028;-69
2023/11/02 02:11:45;;;;;;;8.13;5.32;;;;;;;;;;12672269;22;20170;-70
2023/11/02 02:16:50;;;;;;;6.85;4.90;;;;;;;;;;12699660;23;20027;-69
2023/11/02 02:21:56;;;;;;;6.35;4.82;;;;;;;;;;12698715;22;20028;-69
2023/11/02 02:26:58;;;;;;;8.55;4.80;;;;;;;;;;12698994;23;20024;-72
2023/11/02 02:32:18;;;;;;;7.65;5.18;;;;;;;;;;12697761;22;20028;-72
2023/11/02 02:37:19;;;;;;;7.28;4.80;;;;;;;;;;12696394;23;20024;-73
2023/11/02 02:42:16;;;;;;;5.25;4.70;;;;;;;;;;12698317;22;20470;-73
2023/11/02 02:47:13;;;;;;;7.65;5.07;;;;;;;;;;12698763;23;20033;-70
2023/11/02 02:52:12;;;;;;;7.47;4.53;;;;;;;;;;12698876;22;20353;-68
2023/11/02 02:57:09;;;;;;;10.57;4.80;;;;;;;;;;12698098;23;20028;-69
2023/11/02 03:02:06;;;;;;;7.97;5.55;;;;;;;;;;12698534;22;20526;-68
2023/11/02 03:07:03;;;;;;;6.60;4.63;;;;;;;;;;12697387;23;20032;-69
2023/11/02 03:12:02;;;;;;;5.40;4.72;;;;;;;;;;12696893;22;20135;-70
2023/11/02 03:17:06;;;;;;;6.88;4.63;;;;;;;;;;12692891;22;20082;-72
2023/11/02 03:22:10;;;;;;;6.55;4.70;;;;;;;;;;12698175;22;20028;-71
2023/11/02 03:27:09;;;;;;;7.47;4.50;;;;;;;;;;12698213;23;20020;-72
2023/11/02 03:32:14;;;;;;;5.57;4.70;;;;;;;;;;12670975;22;20099;-71
2023/11/02 03:37:16;;;;;;;6.65;4.80;;;;;;;;;;12697510;23;20036;-71
2023/11/02 03:42:17;;;;;;;9.37;4.40;;;;;;;;;;12697293;22;20032;-71
2023/11/02 03:47:19;;;;;;;8.20;4.78;;;;;;;;;;12697332;23;20020;-72
2023/11/02 03:52:16;;;;;;;;;;;;;;;;;;12698366;22;20401;-67
2023/11/02 03:57:18;;;;;;;7.05;4.63;;;;;;;;;;12697640;23;19926;-69
2023/11/02 04:02:34;;;;;;;7.38;5.00;;;;;;;;;;12697663;22;20028;-72
2023/11/02 04:07:32;;;;;;;6.90;4.95;;;;;;;;;;12696999;23;20032;-72
2023/11/02 04:12:32;;;;;;;6.78;5.13;;;;;;;;;;12696203;22;20421;-72
2023/11/02 04:17:29;;;;;;;11.57;5.22;;;;;;;;;;12696840;23;20028;-72
2023/11/02 04:22:25;;;;;;;5.55;5.05;;;;;;;;;;12690750;22;20099;-72
2023/11/02 04:27:22;;;;;;;5.60;5.00;;;;;;;;;;12696440;23;20035;-72
2023/11/02 04:32:18;;;;;;;9.00;5.10;;;;;;;;;;12668394;22;20024;-72
2023/11/02 04:37:15;;;;;;;5.28;4.78;;;;;;;;;;12696815;23;20032;-73
2023/11/02 04:42:12;;;;;;;5.63;4.85;;;;;;;;;;12696508;22;20085;-70
2023/11/02 04:47:08;;;;;;;7.03;5.40;;;;;;;;;;12696778;23;20038;-70
2023/11/02 04:52:06;;;;;;;5.40;4.90;;;;;;;;;;12696513;22;20031;-70
2023/11/02 04:57:03;;;;;;;6.78;5.18;;;;;;;;;;12697526;23;20026;-71
2023/11/02 05:01:59;;;;;;;6.00;4.97;;;;;;;;;;12695878;22;20025;-68
2023/11/02 05:06:55;;;;;;;5.93;5.15;;;;;;;;;;12697023;23;20125;-68
2023/11/02 05:11:52;;;;;;;6.30;4.97;;;;;;;;;;12695654;22;20032;-70
2023/11/02 05:16:48;;;;;;;5.57;5.07;;;;;;;;;;12694559;23;20437;-69
2023/11/02 05:21:45;;;;;;;5.68;5.10;;;;;;;;;;12688520;22;20095;-70
2023/11/02 05:26:41;;;;;;;5.72;4.95;;;;;;;;;;12694984;23;20082;-69
2023/11/02 05:31:37;;;;;;;7.00;4.70;;;;;;;;;;12690006;22;20082;-68
2023/11/02 05:36:34;;;;;;;5.10;4.68;;;;;;;;;;12694344;23;20042;-71
2023/11/02 05:41:30;;;;;;;5.22;4.70;;;;;;;;;;12667866;22;20028;-70
2023/11/02 05:46:26;;;;;;;5.50;5.00;;;;;;;;;;12688456;23;20089;-69
2023/11/02 05:51:23;;;;;;;5.20;4.80;;;;;;;;;;12690707;22;20051;-71
2023/11/02 05:56:19;;;;;;;4.82;4.32;;;;;;;;;;12686343;23;20035;-71
2023/11/02 06:01:16;;;;;;;6.75;4.70;;;;;;;;;;12688258;22;20039;-71
2023/11/02 06:06:12;;;;;;;11.80;5.40;;;;;;;;;;12692580;23;20383;-72
2023/11/02 06:11:09;;;;;;;4.40;4.00;;;;;;;;;;12691351;22;20034;-71
2023/11/02 06:16:09;;;;;;;6.05;3.95;;;;;;;;;;12691052;23;20280;-73
2023/11/02 06:21:05;;;;;;;8.15;3.92;;;;;;;;;;12691217;22;20028;-74
2023/11/02 06:26:02;;;;;;;4.93;3.63;;;;;;;;;;12693775;23;20131;-73
2023/11/02 06:30:59;;;;;;;6.50;3.80;;;;;;;;;;12692097;22;20020;-73
2023/11/02 06:35:56;;;;;;;7.25;4.38;;;;;;;;;;12692947;23;20024;-73
2023/11/02 06:40:52;;;;;;;4.55;3.63;;;;;;;;;;12692733;22;20070;-74
2023/11/02 06:45:51;;;;;;;18.65;4.47;;;;;;;;;;12669077;23;20024;-74
2023/11/02 06:50:50;;;;;;;6.05;3.72;;;;;;;;;;12695851;22;20496;-73
2023/11/02 06:55:47;;;;;;;5.93;3.53;;;;;;;;;;12696908;23;20031;-74
2023/11/02 07:00:43;;;;;;;5.82;3.40;;;;;;;;;;12696590;22;20070;-73
2023/11/02 07:05:40;;;;;;;5.93;4.18;;;;;;;;;;12696455;23;20020;-74
2023/11/02 07:10:37;;;;;;;6.85;3.55;;;;;;;;;;12696609;23;20023;-73
2023/11/02 07:15:33;;;;;;;4.90;3.67;;;;;;;;;;12695239;22;20094;-73
2023/11/02 07:20:29;;;;;;;5.55;4.05;;;;;;;;;;12695714;23;20442;-74
2023/11/02 07:25:26;;;;;;;7.57;3.53;;;;;;;;;;12695140;22;20338;-74
2023/11/02 07:30:22;;;;;;;6.95;3.55;;;;;;;;;;12695400;23;20035;-74
2023/11/02 07:35:19;;;;;;;7.95;3.95;;;;;;;;;;12694883;22;20024;-72
2023/11/02 07:40:15;;;;;;;6.47;3.53;;;;;;;;;;12696444;23;20016;-72
2023/11/02 07:45:12;;;;;;;8.82;3.05;;;;;;;;;;12695186;22;20082;-71
2023/11/02 07:50:08;;;;;;;3.90;3.10;;;;;;;;;;12694604;23;20024;-73
2023/11/02 07:55:05;;;;;;;7.57;3.75;;;;;;;;;;12695579;22;20031;-72
2023/11/02 08:00:02;;;;;;;6.32;3.38;;;;;;;;;;12692490;23;20421;-72
2023/11/02 08:04:59;;;;;;;4.15;3.00;;;;;;;;;;12693590;22;20474;-73
2023/11/02 08:09:55;;;;;;;6.05;3.20;;;;;;;;;;12668020;23;20119;-72
2023/11/02 08:14:51;;;;;;;4.45;2.83;;;;;;;;;;12693564;22;20540;-71
2023/11/02 08:19:48;;;;;;;5.72;2.90;;;;;;;;;;12694986;23;20024;-72
2023/11/02 08:24:44;;;;;;;4.20;3.42;;;;;;;;;;12694478;22;20509;-73
2023/11/02 08:29:41;;;;;;;9.75;3.20;;;;;;;;;;12695385;23;20024;-73
2023/11/02 08:34:41;;;;;;;5.22;2.67;;;;;;;;;;12694737;22;20581;-73
2023/11/02 08:39:41;;;;;;;4.75;3.55;;;;;;;;;;12695232;23;20107;-73
2023/11/02 08:44:40;;;;;;;8.98;3.00;;;;;;;;;;12692466;22;20078;-73
2023/11/02 08:49:41;;;;;;;7.10;3.00;;;;;;;;;;12694035;23;20024;-72
2023/11/02 08:54:38;;;;;;;5.18;2.80;;;;;;;;;;12694549;22;20023;-73
2023/11/02 08:59:34;;;;;;;3.97;2.88;;;;;;;;;;12694192;23;20028;-73
2023/11/02 09:04:30;;;;;;;9.52;3.08;;;;;;;;;;12694785;22;20027;-73
2023/11/02 09:09:27;;;;;;;6.50;3.00;;;;;;;;;;12693519;23;20020;-73
2023/11/02 09:14:23;;;;;;;4.68;2.85;;;;;;;;;;12667194;23;20020;-73
2023/11/02 09:19:20;;;;;;;5.22;3.30;;;;;;;;;;12693550;23;20028;-74
2023/11/02 09:24:17;;;;;;;5.78;3.08;;;;;;;;;;12693885;22;20043;-73
2023/11/02 09:29:15;;;;;;;6.65;3.40;;;;;;;;;;12691959;23;20048;-74
2023/11/02 09:34:12;;;;;;;4.35;3.33;;;;;;;;;;12693576;22;20099;-74
2023/11/02 09:39:08;;;;;;;6.72;3.35;;;;;;;;;;12693847;23;20031;-73
2023/11/02 09:44:05;;;;;;;4.30;3.10;;;;;;;;;;12693585;22;20024;-73
2023/11/02 09:49:01;;;;;;;3.42;2.97;;;;;;;;;;12693151;23;20035;-73
2023/11/02 09:53:58;;;;;;;4.75;3.20;;;;;;;;;;12695166;22;20027;-73
2023/11/02 09:58:56;;;;;;;4.32;2.88;;;;;;;;;;12696415;23;20035;-73
2023/11/02 10:03:53;;;;;;;5.30;3.10;;;;;;;;;;12698404;22;20024;-72
2023/11/02 10:08:49;;;;;;;4.22;2.90;;;;;;;;;;12697749;23;20020;-73
2023/11/02 10:13:47;;;;;;;4.60;3.13;;;;;;;;;;12697050;22;20026;-73
2023/11/02 10:18:44;;;;;;;4.70;2.78;;;;;;;;;;12697123;23;20115;-73
2023/11/02 10:23:52;;;;;;;4.82;3.00;;;;;;;;;;12697436;22;20027;-73
2023/11/02 10:28:50;;;;;;;3.85;3.22;;;;;;;;;;12696132;23;20032;-71
2023/11/02 10:33:50;;;;;;;5.13;3.50;;;;;;;;;;12695781;22;20035;-73
2023/11/02 10:38:49;;;;;;;3.95;2.80;;;;;;;;;;12697161;23;20024;-73
2023/11/02 10:44:11;;;;;;;5.25;3.47;;;;;;;;;;12698254;22;20039;-73
2023/11/02 10:49:10;;;;;;;5.07;3.20;;;;;;;;;;12696571;23;20015;-73
2023/11/02 11:05:50;;;;;;;6.28;3.20;;;;;;;;;;12394766;23;20030;-74
2023/11/02 11:10:50;;;;;;;6.88;3.08;;;;;;;;;;12632965;23;20104;-74
2023/11/02 11:15:47;;;;;;;5.88;2.97;;;;;;;;;;12634290;23;20491;-74
2023/11/02 11:20:45;;;;;;;3.88;2.72;;;;;;;;;;12634463;23;20028;-74
2023/11/02 11:25:58;;;;;;;7.18;2.92;;;;;;;;;;12633033;23;20024;-73
2023/11/02 11:42:05;;;;;;;6.30;3.20;;;;;;;;;;12557735;23;20021;-73
2023/11/02 11:47:02;;;;;;;8.75;3.40;;;;;;;;;;12561545;23;20075;-73
2023/11/02 11:51:59;;;;;;;4.95;3.05;;;;;;;;;;12563815;23;20068;-73
2023/11/02 11:56:56;;;;;;;4.63;3.25;;;;;;;;;;12565508;23;20024;-73
2023/11/02 12:02:18;;;;;;;4.80;3.55;;;;;;;;;;12564610;23;20025;-73
2023/11/02 12:07:20;;;;;;;4.35;3.08;;;;;;;;;;12510948;23;20032;-73
2023/11/02 12:23:30;;;;;;;3.58;3.25;;;;;;;;;;12685998;22;20020;-74
2023/11/02 12:28:26;;;;;;;5.68;3.30;;;;;;;;;;12694177;23;20043;-72
2023/11/02 12:33:23;;;;;;;3.97;3.10;;;;;;;;;;12667275;22;20039;-73
2023/11/02 12:38:36;;;;;;;8.27;3.72;;;;;;;;;;12694656;23;20413;-73
2023/11/02 12:43:39;;;;;;;3.40;3.10;;;;;;;;;;12693523;22;20028;-73
2023/11/02 12:48:36;;;;;;;4.65;3.28;;;;;;;;;;12694252;23;20020;-73
2023/11/02 12:53:35;;;;;;;4.93;3.20;;;;;;;;;;12694001;22;20031;-73
2023/11/02 12:58:32;;;;;;;4.90;3.85;;;;;;;;;;12693874;23;20513;-73
2023/11/02 13:03:28;;;;;;;5.13;3.92;;;;;;;;;;12692920;22;20028;-72
2023/11/02 13:08:25;;;;;;;4.90;4.50;;;;;;;;;;12692804;23;20024;-73
2023/11/02 13:13:21;;;;;;;4.38;3.97;;;;;;;;;;12693463;22;20028;-73
2023/11/02 13:18:17;;;;;;;4.85;3.90;;;;;;;;;;12693169;23;20354;-73
2023/11/02 13:23:14;;;;;;;4.40;3.90;;;;;;;;;;12666100;22;20021;-73
2023/11/02 13:28:11;;;;;;;5.15;4.18;;;;;;;;;;12695092;23;20051;-72
2023/11/02 13:33:43;;;;;;;4.50;4.07;;;;;;;;;;12671661;22;20031;-73
2023/11/02 13:39:25;;;;;;;4.20;3.80;;;;;;;;;;12490743;23;20367;-73
2023/11/02 13:44:21;;;;;;;3.85;3.55;;;;;;;;;;12506853;23;20029;-72
2023/11/02 13:49:17;;;;;;;4.03;3.63;;;;;;;;;;12507483;23;20030;-74
2023/11/02 13:54:14;;;;;;;4.70;4.30;;;;;;;;;;12508187;23;20025;-74
2023/11/02 13:59:11;;;;;;;7.40;4.05;;;;;;;;;;12504962;23;20093;-73
2023/11/02 14:04:44;;;;;;;5.22;3.80;;;;;;;;;;12631366;22;20024;-73
2023/11/02 14:09:41;;;;;;;6.50;3.40;;;;;;;;;;12681740;23;20102;-74
2023/11/02 14:14:46;;;;;;;4.63;3.42;;;;;;;;;;12698630;22;20486;-73
2023/11/02 14:19:53;;;;;;;5.32;3.75;;;;;;;;;;12654562;23;20074;-75
2023/11/02 14:25:10;;;;;;;6.32;4.05;;;;;;;;;;12656072;23;20028;-75
2023/11/02 14:30:33;;;;;;;4.05;3.65;;;;;;;;;;12647644;23;20440;-75
2023/11/02 14:36:07;;;;;;;5.18;3.60;;;;;;;;;;12650188;23;20370;-75
2023/11/02 14:41:36;;;;;;;4.43;3.80;;;;;;;;;;12685245;23;20529;-74
2023/11/02 14:47:31;;;;;;;7.30;3.60;;;;;;;;;;12675110;23;20358;-74
2023/11/02 14:52:31;;;;;;;3.80;3.38;;;;;;;;;;12698508;22;20032;-74
2023/11/02 14:57:28;;;;;;;4.72;3.60;;;;;;;;;;12698467;23;20055;-75
2023/11/02 15:02:24;;;;;;;8.55;3.80;;;;;;;;;;12698421;22;20020;-75
2023/11/02 15:07:20;;;;;;;4.68;3.30;;;;;;;;;;12698650;23;20066;-71
2023/11/02 15:12:17;;;;;;;4.13;3.67;;;;;;;;;;12696610;22;20027;-74
2023/11/02 15:17:14;;;;;;;3.50;3.20;;;;;;;;;;12698510;23;20548;-74
2023/11/02 15:22:11;;;;;;;5.53;3.60;;;;;;;;;;12670354;22;20089;-74
2023/11/02 15:27:08;;;;;;;5.15;3.47;;;;;;;;;;12698454;23;20474;-74
2023/11/02 15:32:05;;;;;;;4.32;3.60;;;;;;;;;;12696268;22;20027;-72
2023/11/02 15:37:02;;;;;;;4.05;3.65;;;;;;;;;;12668626;23;20024;-73
2023/11/02 15:53:16;;;;;;;5.70;4.38;;;;;;;;;;12619629;23;20058;-74
2023/11/02 15:58:12;;;;;;;4.88;4.38;;;;;;;;;;12697406;22;20024;-73
2023/11/02 16:03:08;;;;;;;4.57;4.00;;;;;;;;;;12694980;23;20074;-73
2023/11/02 16:08:05;;;;;;;6.93;4.53;;;;;;;;;;12695381;23;20024;-73
2023/11/02 16:13:01;;;;;;;5.15;4.65;;;;;;;;;;12692215;22;20062;-73
2023/11/02 16:17:58;;;;;;;6.95;4.30;;;;;;;;;;12688895;22;20016;-75
2023/11/02 16:22:54;;;;;;;6.20;4.03;;;;;;;;;;12689535;22;20024;-76
2023/11/02 16:27:52;;;;;;;4.60;4.03;;;;;;;;;;12689660;22;20028;-73
2023/11/02 16:38:24;;;;;;;7.63;3.97;;;;;;;;;;12684447;22;20024;-74
2023/11/02 16:49:04;;;;;;;4.28;3.88;;;;;;;;;;12622060;23;20016;-74
2023/11/02 16:54:15;;;;;;;5.43;4.20;;;;;;;;;;12628151;23;20539;-75
2023/11/02 16:59:16;;;;;;;4.43;3.83;;;;;;;;;;12632399;23;20032;-74
2023/11/02 17:04:13;;;;;;;4.50;4.10;;;;;;;;;;12631147;23;20028;-74
2023/11/02 17:09:10;;;;;;;6.07;4.05;;;;;;;;;;12631007;23;20107;-72
2023/11/02 17:14:06;;;;;;;4.68;3.63;;;;;;;;;;12604462;23;20482;-74
2023/11/02 17:19:03;;;;;;;6.80;3.58;;;;;;;;;;12627887;23;20104;-74
2023/11/02 17:23:59;;;;;;;5.03;3.85;;;;;;;;;;12603725;23;20052;-74
2023/11/02 17:28:56;;;;;;;5.93;3.90;;;;;;;;;;12630518;23;20029;-73
2023/11/02 17:33:52;;;;;;;8.15;3.90;;;;;;;;;;12630717;23;20049;-73
2023/11/02 17:38:49;;;;;;;6.15;4.30;;;;;;;;;;12631549;23;20051;-73
2023/11/02 17:49:53;;;;;;;4.88;3.80;;;;;;;;;;12672806;23;20024;-74
2023/11/02 17:54:50;;;;;;;4.22;3.80;;;;;;;;;;12692359;22;20024;-73
2023/11/02 17:59:46;;;;;;;4.47;3.70;;;;;;;;;;12693116;23;20024;-72
2023/11/02 18:04:43;;;;;;;6.00;3.90;;;;;;;;;;12667025;23;20028;-74
2023/11/02 18:09:40;;;;;;;7.35;3.88;;;;;;;;;;12665523;23;20035;-73
2023/11/02 18:14:36;;;;;;;5.63;4.03;;;;;;;;;;12693746;22;20051;-74
2023/11/02 18:19:33;;;;;;;3.95;3.53;;;;;;;;;;12669809;23;20024;-74
2023/11/02 18:24:29;;;;;;;5.18;3.25;;;;;;;;;;12696342;22;20754;-74
2023/11/02 18:29:26;;;;;;;6.18;3.47;;;;;;;;;;12696096;23;20107;-73
2023/11/02 18:45:25;;;;;;;;;;;;;;;;;;;;;
2023/11/02 18:50:46;;;;;;;6.00;3.25;;;;;;;;;;12555484;23;20012;-76
2023/11/02 18:55:42;;;;;;;4.53;3.60;;;;;;;;;;12697145;22;20096;-75
2023/11/02 19:00:40;;;;;;;5.82;3.72;;;;;;;;;;12695236;23;20020;-74
2023/11/02 19:28:59;;;;;;;5.32;3.70;;;;;;;;;;12695745;22;20024;-75
2023/11/02 19:33:56;;;;;;;5.07;3.25;;;;;;;;;;12694244;22;20370;-75
2023/11/02 19:38:54;;;;;;;3.70;2.78;;;;;;;;;;12695493;23;20078;-74
2023/11/02 19:49:02;;;;;;;6.90;3.57;;;;;;;;;;12694808;22;20449;-74
2023/11/02 20:33:34;;;;;;;6.15;3.10;;;;;;;;;;12692222;23;20104;-75
2023/11/02 20:38:31;;;;;;;4.70;2.88;;;;;;;;;;12693953;23;20028;-75
2023/11/02 20:43:28;;;;;;;7.97;3.25;;;;;;;;;;12667048;23;20127;-75
2023/11/02 20:48:24;;;;;;;4.45;3.20;;;;;;;;;;12694570;23;20029;-75
2023/11/02 21:09:23;;;;;;;5.05;3.78;;;;;;;;;;12691875;22;20020;-75
2023/11/02 21:19:51;;;;;;;5.30;3.38;;;;;;;;;;12692700;22;20028;-72
2023/11/02 21:24:53;;;;;;;9.25;3.92;;;;;;;;;;12681471;22;20028;-70
2023/11/02 21:29:49;;;;;;;5.57;3.73;;;;;;;;;;12689879;23;20035;-69
2023/11/02 21:34:46;;;;;;;4.68;3.30;;;;;;;;;;12693011;22;20078;-69
2023/11/02 21:39:42;;;;;;;4.70;3.35;;;;;;;;;;12691560;23;20024;-69
2023/11/02 21:44:39;;;;;;;7.07;3.75;;;;;;;;;;12692487;22;20016;-69
2023/11/02 21:49:35;;;;;;;5.95;3.40;;;;;;;;;;12693387;23;20020;-69
2023/11/02 21:54:36;;;;;;;6.95;3.30;;;;;;;;;;12695277;22;20052;-69
2023/11/02 21:59:32;;;;;;;7.30;3.05;;;;;;;;;;12696910;23;20517;-69
2023/11/02 22:04:28;;;;;;;9.15;3.42;;;;;;;;;;12696641;22;20024;-69
2023/11/02 22:09:25;;;;;;;6.05;3.00;;;;;;;;;;12696678;23;20082;-68
2023/11/02 22:14:21;;;;;;;5.10;3.20;;;;;;;;;;12695315;22;20024;-68
2023/11/02 22:19:18;;;;;;;7.90;3.30;;;;;;;;;;12697546;23;20016;-68
2023/11/02 22:24:14;;;;;;;6.28;2.80;;;;;;;;;;12696794;22;20028;-70
2023/11/02 22:29:11;;;;;;;6.57;3.05;;;;;;;;;;12671125;23;20245;-69
2023/11/02 22:34:08;;;;;;;6.15;2.85;;;;;;;;;;12694839;22;20086;-69
2023/11/02 22:39:04;;;;;;;6.88;3.35;;;;;;;;;;12696162;23;20020;-70
2023/11/02 22:44:01;;;;;;;5.80;3.20;;;;;;;;;;12696239;22;20054;-68
2023/11/02 22:48:57;;;;;;;6.32;2.90;;;;;;;;;;12695815;23;20376;-69
2023/11/02 22:53:54;;;;;;;6.60;3.03;;;;;;;;;;12669274;22;20111;-69
2023/11/02 22:58:50;;;;;;;5.95;2.75;;;;;;;;;;12695610;23;20012;-69
2023/11/02 23:03:51;;;;;;;5.95;2.85;;;;;;;;;;12695976;22;20020;-68
2023/11/02 23:08:47;;;;;;;6.20;3.03;;;;;;;;;;12695297;23;20474;-69
2023/11/02 23:13:44;;;;;;;5.07;2.83;;;;;;;;;;12693748;22;20032;-69
2023/11/02 23:18:44;;;;;;;9.40;3.05;;;;;;;;;;12689938;23;20042;-68
2023/11/02 23:23:40;;;;;;;4.78;2.67;;;;;;;;;;12691555;22;20035;-68
2023/11/02 23:28:36;;;;;;;7.40;3.05;;;;;;;;;;12691974;23;20035;-69
2023/11/02 23:33:33;;;;;;;4.88;2.83;;;;;;;;;;12691654;22;20028;-68
2023/11/02 23:38:30;;;;;;;5.20;2.50;;;;;;;;;;12692164;23;20112;-67
2023/11/02 23:43:26;;;;;;;5.97;2.90;;;;;;;;;;12692064;22;20030;-68
2023/11/02 23:48:22;;;;;;;6.35;3.00;;;;;;;;;;12691731;23;20028;-67
2023/11/02 23:53:20;;;;;;;11.60;2.90;;;;;;;;;;12690644;22;20096;-66
2023/11/02 23:58:17;;;;;;;5.55;2.53;;;;;;;;;;12692292;23;20020;-68
